Au Sable Chasm, New York
Current Conditions -  °F | °C
As of 1:51 PM on Wednesday 26 Nov 2014 (Local Time) from KPBG Reporting Station
Light Snow Light Snow  
Wind Chill: -6°   Ceiling: 2700
Heat Index: -1°   Visibility: 2mi
Dew Point: -6°   Wind: 9mph
Humidity: 69%   Direction: 360°N
Pressure: 30.18"   Gusts: NA
Location:  44.5125°N, 73.5235°W
Report Text: KPBG 261851Z AUTO 36008KT 2SM -SN OVC027 M01/M06 A3018 RMK AO2 SNB09 P0000
Loading
Personal Weather Stations






























Interactive Weather Map New forecast layout! Learn more

10-Day Weather Forecast

Advertisements
Track Severe Weather on mobile